Time;durP1;ratioP1;P1;durP2;ratioP2;P2;SDS_P1;SDS_P2;PMS_P1;PMS_P2;Temp;Humidity;BMP_temperature;BMP_pressure;BME280_temperature;BME280_humidity;BME280_pressure;Samples;Min_cycle;Max_cycle;Signal;HPM_P1;HPM_P2
2023/05/11 03:58:57;;;;;;;3.70;2.80;;;;;;;12.38;71.58;100480.16;6523508;26;20075;-84
2023/05/11 04:02:02;;;;;;;3.08;2.78;;;;;;;12.32;71.82;100486.31;6615691;27;33971;-84
2023/05/11 04:05:12;;;;;;;2.90;2.45;;;;;;;12.23;72.10;100484.72;6606737;27;33902;-83
2023/05/11 04:08:15;;;;;;;3.65;2.50;;;;;;;12.21;73.18;100481.37;6568971;27;33534;-84
2023/05/11 04:11:17;;;;;;;2.75;2.55;;;;;;;12.16;73.27;100490.00;6587617;27;34000;-83
2023/05/11 04:14:20;;;;;;;4.87;2.90;;;;;;;12.19;73.32;100481.53;6569848;27;34949;-84
2023/05/11 04:17:23;;;;;;;2.90;2.60;;;;;;;12.08;73.86;100491.97;6569975;27;33907;-83
2023/05/11 04:20:26;;;;;;;3.90;2.70;;;;;;;11.98;76.42;100494.94;6590289;27;33990;-83
2023/05/11 04:23:29;;;;;;;4.05;2.65;;;;;;;11.93;76.03;100498.16;6581859;27;33510;-83
2023/05/11 04:26:33;;;;;;;7.70;3.12;;;;;;;11.85;76.72;100500.97;6580546;27;34865;-84
2023/05/11 04:29:36;;;;;;;2.65;2.45;;;;;;;11.79;77.50;100496.28;6550903;27;33563;-83
2023/05/11 04:32:38;;;;;;;6.12;3.03;;;;;;;11.84;77.21;100512.72;6568602;27;33666;-83
2023/05/11 04:35:43;;;;;;;5.65;2.97;;;;;;;11.88;77.26;100514.09;6551917;27;33879;-83
2023/05/11 04:38:46;;;;;;;4.45;2.92;;;;;;;11.98;76.34;100505.72;6606139;27;33839;-83
2023/05/11 04:41:49;;;;;;;3.25;2.55;;;;;;;12.16;74.20;100508.91;6587032;27;34323;-83
2023/05/11 04:44:53;;;;;;;4.32;3.12;;;;;;;12.28;72.62;100516.53;6568974;27;34134;-83
2023/05/11 04:47:56;;;;;;;4.93;3.08;;;;;;;12.38;69.05;100509.03;6587480;27;33818;-83
2023/05/11 04:51:03;;;;;;;3.85;2.70;;;;;;;12.48;69.49;100515.78;6586499;27;34093;-83
2023/05/11 04:54:06;;;;;;;6.03;2.95;;;;;;;12.62;66.23;100513.28;6591788;27;33533;-83
2023/05/11 04:57:09;;;;;;;2.72;2.53;;;;;;;12.80;65.16;100524.53;6568764;27;33847;-83
2023/05/11 05:00:12;;;;;;;3.33;2.45;;;;;;;12.85;63.32;100516.69;6605750;26;33809;-86
2023/05/11 05:03:15;;;;;;;5.55;2.47;;;;;;;12.99;62.47;100514.16;6586529;27;33363;-87
2023/05/11 05:06:18;;;;;;;5.12;2.58;;;;;;;12.90;60.24;100526.94;6605841;27;33788;-87
2023/05/11 05:09:21;;;;;;;3.35;2.78;;;;;;;12.96;60.82;100523.50;6588264;27;34576;-89
2023/05/11 05:12:26;;;;;;;6.32;2.80;;;;;;;12.96;59.58;100525.31;6606934;26;33669;-85
2023/05/11 05:15:28;;;;;;;7.18;2.55;;;;;;;12.84;59.95;100522.28;6628095;26;35179;-84
2023/05/11 05:18:32;;;;;;;4.87;2.97;;;;;;;12.67;62.19;100518.97;6617336;26;34756;-84
2023/05/11 05:21:36;;;;;;;3.37;2.80;;;;;;;12.72;60.08;100524.63;6606593;27;33707;-83
2023/05/11 05:24:39;;;;;;;3.72;2.70;;;;;;;12.79;60.49;100522.84;6587978;27;33827;-83
2023/05/11 05:27:42;;;;;;;5.03;2.90;;;;;;;12.91;59.89;100526.75;6611739;27;34412;-83
2023/05/11 05:30:45;;;;;;;7.03;3.10;;;;;;;12.76;59.79;100525.94;6581515;27;34384;-83
2023/05/11 05:33:48;;;;;;;6.47;2.70;;;;;;;12.80;59.65;100523.69;6599717;27;34530;-83
2023/05/11 05:36:52;;;;;;;6.32;2.67;;;;;;;12.78;59.06;100534.69;6567639;27;34579;-83
2023/05/11 05:39:55;;;;;;;4.90;2.85;;;;;;;12.76;60.10;100523.25;6585043;27;33804;-83
2023/05/11 05:42:58;;;;;;;4.15;2.90;;;;;;;12.80;60.08;100527.22;6604978;27;33599;-83
2023/05/11 05:46:00;;;;;;;4.28;2.70;;;;;;;12.76;60.05;100534.03;6567336;27;33884;-83
2023/05/11 05:49:04;;;;;;;3.60;2.80;;;;;;;12.70;59.27;100534.81;6605600;27;34223;-83
2023/05/11 05:52:09;;;;;;;6.30;3.50;;;;;;;12.86;59.21;100539.97;6606325;27;34099;-83
2023/05/11 05:55:12;;;;;;;7.47;3.00;;;;;;;12.89;59.23;100541.47;6586754;27;33598;-83
2023/05/11 05:58:15;;;;;;;4.78;2.83;;;;;;;12.99;59.03;100542.03;6605986;27;34638;-83
2023/05/11 06:01:18;;;;;;;3.25;2.62;;;;;;;13.02;58.33;100536.25;6578431;27;33611;-83
2023/05/11 06:04:21;;;;;;;4.93;2.95;;;;;;;13.13;59.53;100540.28;6562327;27;33671;-83
2023/05/11 06:07:24;;;;;;;3.75;2.90;;;;;;;13.29;58.42;100547.38;6579518;27;34146;-84
2023/05/11 06:10:27;;;;;;;3.05;2.75;;;;;;;13.44;57.69;100548.16;6541787;27;33596;-84
2023/05/11 06:13:30;;;;;;;8.25;3.10;;;;;;;13.53;57.45;100549.69;6541827;27;33422;-84
2023/05/11 06:16:34;;;;;;;11.45;3.05;;;;;;;13.67;56.76;100544.44;6578837;27;34492;-84
2023/05/11 06:19:37;;;;;;;7.82;3.10;;;;;;;14.03;56.33;100542.44;6559629;27;33880;-84
2023/05/11 06:22:40;;;;;;;4.80;3.50;;;;;;;14.13;55.66;100542.13;6522672;27;34239;-83
2023/05/11 06:25:43;;;;;;;5.37;2.90;;;;;;;14.19;55.76;100554.88;6558069;27;33781;-84
2023/05/11 06:28:46;;;;;;;3.12;2.67;;;;;;;14.32;55.87;100547.88;6541557;27;33649;-84
2023/05/11 06:31:53;;;;;;;5.07;2.78;;;;;;;14.46;55.42;100547.75;6583495;27;33790;-85
2023/05/11 06:34:56;;;;;;;5.70;3.20;;;;;;;14.44;55.15;100543.56;6566158;27;33877;-84
2023/05/11 06:37:59;;;;;;;5.28;3.37;;;;;;;14.65;55.17;100543.50;6543155;27;33766;-85
2023/05/11 06:41:02;;;;;;;4.32;2.92;;;;;;;14.70;55.22;100541.03;6579169;27;34579;-85
2023/05/11 06:44:05;;;;;;;4.45;2.62;;;;;;;14.78;54.93;100541.91;6578033;27;34099;-85
2023/05/11 06:47:10;;;;;;;4.05;3.15;;;;;;;14.93;55.30;100550.72;6558745;27;33593;-84
2023/05/11 06:50:12;;;;;;;7.30;3.00;;;;;;;14.85;55.68;100543.59;6558001;27;34710;-83
2023/05/11 06:53:16;;;;;;;5.95;2.87;;;;;;;15.13;55.07;100539.97;6557585;27;33824;-84
2023/05/11 06:56:20;;;;;;;7.60;2.80;;;;;;;15.18;55.31;100537.44;6558541;27;34588;-84
2023/05/11 06:59:23;;;;;;;4.65;3.17;;;;;;;15.40;54.14;100540.88;6546808;27;34546;-83
2023/05/11 07:02:26;;;;;;;6.82;3.00;;;;;;;15.27;54.15;100540.81;6603404;27;33389;-84
2023/05/11 07:05:30;;;;;;;4.22;2.83;;;;;;;15.51;53.58;100536.72;6584822;27;33673;-82
2023/05/11 07:08:33;;;;;;;2.85;2.40;;;;;;;15.87;51.78;100526.31;6603439;27;33858;-83
2023/05/11 07:11:36;;;;;;;4.85;3.10;;;;;;;16.05;51.66;100525.69;6603642;27;34482;-83
2023/05/11 07:14:38;;;;;;;5.40;2.92;;;;;;;15.77;51.65;100536.78;6605418;27;33656;-83
2023/05/11 07:17:41;;;;;;;3.85;3.20;;;;;;;15.89;51.95;100531.56;6605318;27;34594;-86
2023/05/11 07:20:48;;;;;;;4.97;2.60;;;;;;;15.91;51.52;100526.72;6585418;27;34594;-87
2023/05/11 07:23:51;;;;;;;3.10;2.80;;;;;;;15.95;50.32;100533.44;6586705;27;33740;-87
2023/05/11 07:26:55;;;;;;;3.78;2.62;;;;;;;16.01;49.02;100521.72;6603576;27;34581;-83
2023/05/11 07:29:58;;;;;;;4.75;2.60;;;;;;;16.27;49.15;100517.31;6604171;27;34581;-83
2023/05/11 07:33:01;;;;;;;3.85;2.83;;;;;;;16.41;49.21;100515.37;6585761;27;33684;-83
2023/05/11 07:36:06;;;;;;;6.15;2.85;;;;;;;16.55;48.85;100515.16;6595507;27;33802;-84
2023/05/11 07:39:09;;;;;;;4.37;2.80;;;;;;;16.86;47.13;100519.03;6603971;27;33530;-84
2023/05/11 07:42:12;;;;;;;4.70;3.33;;;;;;;16.78;47.38;100514.69;6585676;27;33565;-83
2023/05/11 07:45:15;;;;;;;4.60;2.90;;;;;;;17.04;47.01;100506.62;6585560;27;34342;-84
2023/05/11 07:48:18;;;;;;;4.68;2.80;;;;;;;17.48;47.00;100504.87;6585403;27;33671;-84
2023/05/11 07:51:20;;;;;;;3.78;2.97;;;;;;;17.51;46.17;100510.72;6585250;27;34570;-83
2023/05/11 07:54:23;;;;;;;2.70;2.47;;;;;;;17.53;45.27;100508.63;6567351;27;34103;-83
2023/05/11 07:57:26;;;;;;;4.07;2.65;;;;;;;17.88;45.47;100513.62;6586330;27;33421;-83
2023/05/11 08:00:29;;;;;;;2.62;2.42;;;;;;;18.03;44.57;100511.37;6603653;27;34498;-83
2023/05/11 08:03:32;;;;;;;5.87;2.85;;;;;;;18.11;43.58;100511.09;6605881;27;33407;-83
2023/05/11 08:06:35;;;;;;;5.85;3.20;;;;;;;18.07;43.92;100503.59;6604531;26;33973;-82
2023/05/11 08:09:38;;;;;;;3.17;2.87;;;;;;;18.09;43.57;100506.94;6604297;27;34564;-83
2023/05/11 08:12:40;;;;;;;5.55;2.55;;;;;;;18.13;43.45;100505.41;6606123;27;33616;-83
2023/05/11 08:15:43;;;;;;;3.22;2.53;;;;;;;18.08;44.03;100505.28;6604313;27;33985;-83
2023/05/11 08:18:46;;;;;;;5.82;2.40;;;;;;;18.27;43.01;100497.94;6603017;27;35006;-83
2023/05/11 08:21:49;;;;;;;3.60;2.50;;;;;;;18.40;42.32;100503.28;6584877;27;33510;-83
2023/05/11 08:24:52;;;;;;;2.72;2.50;;;;;;;18.45;42.19;100497.13;6584607;27;33765;-83
2023/05/11 08:27:55;;;;;;;2.90;2.67;;;;;;;18.50;41.89;100500.00;6602492;27;33800;-83
2023/05/11 08:30:59;;;;;;;3.35;2.53;;;;;;;18.33;42.18;100491.59;6604328;27;34268;-83
2023/05/11 08:34:02;;;;;;;5.43;2.35;;;;;;;18.88;40.93;100482.59;6604120;27;34252;-83
2023/05/11 08:37:05;;;;;;;4.62;2.12;;;;;;;19.06;40.31;100490.72;6602978;27;34008;-83
2023/05/11 08:40:10;;;;;;;3.80;2.25;;;;;;;18.91;40.14;100490.31;6603598;27;33657;-83
2023/05/11 08:43:17;;;;;;;2.47;2.15;;;;;;;19.29;40.16;100489.16;6604579;27;34143;-83
2023/05/11 08:46:23;;;;;;;2.15;1.95;;;;;;;19.21;40.31;100488.41;6603125;27;33829;-83
2023/05/11 08:49:26;;;;;;;4.80;2.20;;;;;;;19.30;38.93;100486.19;6605111;27;34040;-83
2023/05/11 08:52:29;;;;;;;3.60;1.95;;;;;;;19.17;37.82;100476.31;6586653;27;33950;-83
2023/05/11 08:55:34;;;;;;;2.53;2.03;;;;;;;19.10;38.19;100466.53;6606960;27;34008;-83
2023/05/11 08:58:37;;;;;;;2.45;2.25;;;;;;;19.37;38.69;100475.19;6586572;27;34521;-84
2023/05/11 09:01:40;;;;;;;8.82;2.62;;;;;;;19.29;39.37;100472.78;6586309;27;34020;-83
2023/05/11 09:04:44;;;;;;;4.97;2.72;;;;;;;19.35;40.26;100463.66;6606633;27;33775;-83
2023/05/11 09:07:54;;;;;;;5.00;2.37;;;;;;;19.62;38.92;100472.25;6609917;26;34073;-83
2023/05/11 09:10:58;;;;;;;5.62;2.40;;;;;;;19.47;39.07;100461.78;6613123;27;33940;-83
2023/05/11 09:14:01;;;;;;;7.93;2.50;;;;;;;19.89;39.40;100443.47;6617273;27;34086;-83
2023/05/11 09:17:04;;;;;;;3.03;2.30;;;;;;;20.15;38.97;100447.59;6605722;27;33978;-83
2023/05/11 09:20:08;;;;;;;4.43;2.25;;;;;;;20.57;37.46;100452.06;6605556;27;34992;-83
2023/05/11 09:23:23;;;;;;;3.33;2.62;;;;;;;20.57;37.23;100441.97;6604329;27;34037;-83
2023/05/11 09:26:28;;;;;;;9.65;2.87;;;;;;;20.88;36.78;100449.94;6605238;27;34631;-87
2023/05/11 09:29:31;;;;;;;2.95;2.37;;;;;;;20.73;38.44;100439.53;6605573;27;34371;-83
2023/05/11 09:32:49;;;;;;;2.45;2.20;;;;;;;20.10;37.64;100439.28;6586536;27;34758;-83
2023/05/11 09:35:52;;;;;;;2.50;2.30;;;;;;;20.00;38.31;100435.47;6605856;27;33572;-83
2023/05/11 09:39:01;;;;;;;3.10;2.12;;;;;;;19.72;38.35;100431.56;6605704;27;34766;-83
2023/05/11 09:42:30;;;;;;;2.42;2.22;;;;;;;20.20;38.66;100435.09;6606063;27;33464;-83
2023/05/11 09:45:38;;;;;;;3.25;2.40;;;;;;;20.13;37.75;100433.34;6600263;27;33433;-83
2023/05/11 09:48:41;;;;;;;3.42;2.20;;;;;;;20.10;37.26;100424.78;6605531;27;33794;-83
2023/05/11 09:51:47;;;;;;;2.85;2.22;;;;;;;20.33;38.57;100415.72;6586139;27;33788;-82
2023/05/11 09:54:50;;;;;;;2.17;2.08;;;;;;;20.33;37.90;100424.75;6604547;27;34137;-83
2023/05/11 09:57:55;;;;;;;2.42;2.17;;;;;;;20.59;36.70;100422.56;6612735;27;34093;-83
2023/05/11 10:00:58;;;;;;;4.35;1.70;;;;;;;20.99;36.27;100418.94;6624714;27;35519;-83
2023/05/11 10:04:02;;;;;;;2.10;1.90;;;;;;;21.35;34.84;100423.13;6605862;27;34052;-83
2023/05/11 10:07:30;;;;;;;2.22;2.03;;;;;;;21.08;34.90;100411.16;6604936;26;33988;-82
2023/05/11 10:10:33;;;;;;;;;;;;;;;21.03;35.94;100420.09;6609845;27;33945;-83
2023/05/11 10:13:37;;;;;;;2.65;1.83;;;;;;;21.10;35.93;100404.38;6608384;27;33644;-83
2023/05/11 10:16:41;;;;;;;3.80;1.83;;;;;;;20.87;35.44;100415.44;6604463;27;33635;-83
2023/05/11 10:19:46;;;;;;;3.72;2.03;;;;;;;20.53;35.87;100394.28;6603929;27;34319;-83
2023/05/11 10:22:54;;;;;;;3.28;1.92;;;;;;;20.53;34.43;100401.62;6605347;27;33944;-82
2023/05/11 10:25:57;;;;;;;2.83;1.77;;;;;;;20.54;34.98;100404.16;6605451;27;33942;-83
2023/05/11 10:29:00;;;;;;;3.55;1.80;;;;;;;20.68;33.99;100404.69;6605550;27;33747;-86
2023/05/11 10:32:07;;;;;;;3.97;1.92;;;;;;;20.99;33.63;100397.88;6604357;27;33865;-83
2023/05/11 10:35:10;;;;;;;2.20;1.98;;;;;;;21.28;32.40;100403.31;6604096;27;33244;-83
2023/05/11 10:38:15;;;;;;;1.65;1.55;;;;;;;21.42;32.02;100401.12;6603074;27;34590;-83
2023/05/11 10:42:09;;;;;;;2.45;1.95;;;;;;;21.51;32.42;100396.87;6606991;27;33788;-83
2023/05/11 10:45:32;;;;;;;4.10;2.12;;;;;;;21.36;33.02;100388.38;6498287;26;34894;-82
2023/05/11 10:48:44;;;;;;;3.67;1.95;;;;;;;21.90;32.97;100385.94;6605562;27;33969;-83
2023/05/11 10:52:08;;;;;;;3.15;1.90;;;;;;;21.86;31.27;100382.06;6604593;27;33686;-82
2023/05/11 10:55:40;;;;;;;6.45;1.70;;;;;;;22.42;30.83;100382.81;6605391;27;33475;-82
2023/05/11 10:59:27;;;;;;;5.53;1.92;;;;;;;22.26;30.55;100369.97;6605336;27;33802;-82
2023/05/11 11:02:30;;;;;;;4.97;1.90;;;;;;;22.72;30.29;100384.25;6605489;27;34781;-82
2023/05/11 11:05:35;;;;;;;2.70;2.05;;;;;;;23.03;30.73;100361.53;6605320;27;33755;-82
2023/05/11 11:08:55;;;;;;;2.70;1.77;;;;;;;23.60;29.52;100364.72;6585601;27;33992;-82
2023/05/11 11:12:08;;;;;;;3.22;1.83;;;;;;;22.29;30.25;100353.88;6605227;27;33954;-83
2023/05/11 11:15:11;;;;;;;5.80;2.10;;;;;;;22.93;31.39;100364.12;6607583;27;35335;-82
2023/05/11 11:18:20;;;;;;;1.62;1.42;;;;;;;22.82;29.42;100365.97;6603874;27;33459;-83
2023/05/11 11:21:40;;;;;;;6.28;2.22;;;;;;;23.69;28.15;100354.88;6603219;27;33819;-82
2023/05/11 11:24:44;;;;;;;3.85;1.80;;;;;;;23.63;28.69;100355.94;6604811;27;34080;-83
2023/05/11 11:27:51;;;;;;;2.50;1.75;;;;;;;23.54;28.66;100342.69;6603809;27;34996;-83
2023/05/11 11:31:23;;;;;;;7.68;1.92;;;;;;;23.55;28.39;100354.53;6605594;27;33472;-83
2023/05/11 11:34:26;;;;;;;3.90;1.58;;;;;;;23.51;28.54;100359.69;6604877;27;33707;-83
2023/05/11 11:37:29;;;;;;;2.37;1.50;;;;;;;23.64;28.06;100352.94;6605070;27;33389;-83
2023/05/11 11:40:40;;;;;;;2.28;1.50;;;;;;;24.59;27.16;100341.84;6603665;27;34156;-82
2023/05/11 11:43:54;;;;;;;3.25;1.65;;;;;;;25.43;26.17;100336.13;6606073;27;34571;-87
2023/05/11 11:47:22;;;;;;;1.62;1.52;;;;;;;26.51;25.56;100336.66;6603212;27;34522;-84
2023/05/11 11:50:26;;;;;;;2.93;1.43;;;;;;;28.37;23.00;100349.28;6603796;27;33905;-83
2023/05/11 11:53:36;;;;;;;1.87;1.40;;;;;;;26.65;24.54;100343.19;6605719;27;34034;-83
2023/05/11 11:56:39;;;;;;;1.40;1.30;;;;;;;26.54;23.98;100341.59;6614411;27;34569;-83
2023/05/11 11:59:48;;;;;;;2.55;1.60;;;;;;;26.38;24.65;100346.31;6610139;27;35325;-83
2023/05/11 12:02:52;;;;;;;;;;;;;;;28.04;23.63;100329.78;6604421;27;34230;-83
2023/05/11 12:06:00;;;;;;;2.62;1.52;;;;;;;28.42;22.70;100336.22;6605083;27;35119;-83
2023/05/11 12:09:04;;;;;;;3.78;1.62;;;;;;;26.10;24.92;100337.62;6605759;27;33875;-83
2023/05/11 12:12:08;;;;;;;2.65;1.98;;;;;;;23.75;28.46;100335.44;6604763;26;33842;-83
2023/05/11 12:15:33;;;;;;;1.80;1.70;;;;;;;22.66;30.88;100346.84;6604133;27;35082;-83
2023/05/11 12:18:36;;;;;;;1.85;1.70;;;;;;;23.17;30.32;100341.87;6606259;27;33551;-84
2023/05/11 12:21:44;;;;;;;1.98;1.70;;;;;;;24.23;28.47;100334.56;6605029;27;34555;-83
2023/05/11 12:24:47;;;;;;;3.72;1.87;;;;;;;23.00;29.72;100328.28;6604861;27;33763;-83
2023/05/11 12:28:00;;;;;;;3.08;1.92;;;;;;;22.51;30.68;100326.38;6600765;27;34587;-83
2023/05/11 12:31:04;;;;;;;2.40;1.62;;;;;;;23.16;29.86;100327.28;6605825;27;33904;-83
2023/05/11 12:34:13;;;;;;;4.12;1.92;;;;;;;25.32;26.65;100305.81;6587687;27;34385;-83
2023/05/11 12:37:16;;;;;;;4.90;1.67;;;;;;;24.77;27.43;100309.38;6605939;27;34154;-84
2023/05/11 12:40:19;;;;;;;1.77;1.67;;;;;;;24.75;27.40;100308.84;6604672;27;35275;-84
2023/05/11 12:43:21;;;;;;;2.45;1.62;;;;;;;25.83;26.32;100307.69;6606192;27;34489;-83
2023/05/11 12:46:24;;;;;;;2.72;1.58;;;;;;;24.21;27.95;100301.78;6606503;27;34912;-83
2023/05/11 12:49:28;;;;;;;1.48;1.37;;;;;;;24.87;27.00;100310.22;6587287;27;33661;-83
2023/05/11 12:52:30;;;;;;;4.18;1.50;;;;;;;26.04;25.96;100304.84;6605607;27;34629;-88
2023/05/11 12:55:33;;;;;;;5.20;1.87;;;;;;;24.61;27.19;100295.59;6606538;27;34857;-87
2023/05/11 12:58:37;;;;;;;4.30;1.52;;;;;;;25.62;27.00;100295.81;6587790;27;34258;-87
2023/05/11 13:01:40;;;;;;;1.42;1.33;;;;;;;26.21;26.05;100284.06;6607143;27;34077;-84
2023/05/11 13:04:44;;;;;;;4.18;2.00;;;;;;;26.00;25.31;100283.34;6587217;27;34544;-84
2023/05/11 13:08:04;;;;;;;4.07;1.80;;;;;;;25.73;25.51;100285.59;6586285;27;34707;-84
2023/05/11 13:11:23;;;;;;;2.22;1.50;;;;;;;25.97;25.84;100275.63;6607071;27;33844;-84
2023/05/11 13:14:30;;;;;;;1.83;1.60;;;;;;;27.70;23.44;100280.91;6604353;26;34289;-84
2023/05/11 13:17:37;;;;;;;1.60;1.50;;;;;;;28.54;22.75;100269.31;6605651;27;33772;-84
2023/05/11 13:20:42;;;;;;;5.68;2.00;;;;;;;28.91;22.33;100273.97;6605619;27;34673;-83
2023/05/11 13:23:48;;;;;;;1.60;1.50;;;;;;;29.72;22.31;100258.94;6586129;27;33838;-83
2023/05/11 13:26:53;;;;;;;2.67;1.40;;;;;;;30.45;20.94;100252.38;6604483;27;33850;-83
2023/05/11 13:29:55;;;;;;;4.30;1.30;;;;;;;30.67;20.19;100259.06;6605625;27;34250;-84
2023/05/11 13:32:58;;;;;;;1.90;1.70;;;;;;;31.73;19.16;100248.22;6604192;27;33501;-84
2023/05/11 13:36:01;;;;;;;1.58;1.48;;;;;;;30.41;20.09;100251.34;6604143;27;33504;-84
2023/05/11 13:39:04;;;;;;;1.60;1.20;;;;;;;27.65;23.19;100244.19;6604383;27;33698;-84
2023/05/11 13:42:07;;;;;;;1.67;1.33;;;;;;;28.05;23.03;100240.09;6605838;27;33820;-84
2023/05/11 13:45:10;;;;;;;4.80;2.15;;;;;;;29.68;20.99;100244.88;6605562;27;33960;-84
2023/05/11 13:48:13;;;;;;;1.83;1.50;;;;;;;30.52;20.48;100242.78;6606174;27;33532;-84
2023/05/11 13:51:16;;;;;;;2.65;1.55;;;;;;;29.68;20.81;100233.78;6586188;27;33792;-83
2023/05/11 13:54:20;;;;;;;1.83;1.40;;;;;;;27.73;22.79;100243.50;6604092;27;33526;-84
2023/05/11 13:57:22;;;;;;;1.40;1.30;;;;;;;25.92;24.10;100230.69;6603805;27;34624;-84
2023/05/11 14:00:26;;;;;;;1.83;1.20;;;;;;;24.89;25.47;100219.91;6603993;27;33802;-84
2023/05/11 14:03:30;;;;;;;2.17;1.35;;;;;;;23.96;26.05;100229.12;6586487;27;33652;-83
2023/05/11 14:06:34;;;;;;;3.12;1.27;;;;;;;23.08;27.78;100229.75;6604273;27;33932;-83
2023/05/11 14:09:37;;;;;;;2.42;1.75;;;;;;;22.82;27.71;100222.41;6605979;27;35171;-83
2023/05/11 14:12:40;;;;;;;1.67;1.58;;;;;;;22.25;27.83;100232.03;6588075;27;34046;-83
2023/05/11 14:15:43;;;;;;;1.45;1.30;;;;;;;22.62;28.30;100226.63;6604176;26;34965;-83
2023/05/11 14:18:48;;;;;;;5.00;2.15;;;;;;;22.38;28.12;100234.38;6586000;27;33817;-83
2023/05/11 14:21:52;;;;;;;3.00;1.50;;;;;;;21.78;28.68;100216.13;6605939;27;34711;-83
2023/05/11 14:24:55;;;;;;;1.85;1.70;;;;;;;21.60;29.26;100213.72;6570125;27;33881;-83
2023/05/11 14:27:57;;;;;;;4.40;1.37;;;;;;;21.63;29.37;100216.78;6603683;27;33548;-83
2023/05/11 14:31:00;;;;;;;1.55;1.45;;;;;;;21.69;28.82;100223.97;6603576;27;34679;-83
2023/05/11 14:34:04;;;;;;;2.15;1.70;;;;;;;21.63;28.98;100218.69;6604543;27;33952;-83
2023/05/11 14:37:07;;;;;;;3.60;2.05;;;;;;;21.38;29.19;100209.06;6613065;27;33425;-86
2023/05/11 14:40:11;;;;;;;2.20;1.87;;;;;;;21.05;29.34;100216.22;6614496;27;33840;-87
2023/05/11 14:43:14;;;;;;;2.22;2.00;;;;;;;21.24;29.71;100213.22;6586103;27;34575;-88
2023/05/11 14:46:17;;;;;;;2.80;1.80;;;;;;;21.29;29.46;100208.66;6599419;27;157400;-86
2023/05/11 14:49:20;;;;;;;1.85;1.70;;;;;;;21.48;29.75;100214.66;6573926;27;33690;-82
2023/05/11 14:52:23;;;;;;;4.62;1.98;;;;;;;21.34;30.19;100212.53;6624349;27;35006;-83
2023/05/11 14:55:25;;;;;;;4.22;1.90;;;;;;;21.54;30.29;100203.78;6608295;27;34798;-84
2023/05/11 14:58:28;;;;;;;2.97;1.67;;;;;;;21.42;30.13;100206.66;6603497;27;34936;-82
2023/05/11 15:01:31;;;;;;;1.50;1.40;;;;;;;21.25;30.46;100204.75;6605314;27;33827;-82
2023/05/11 15:04:34;;;;;;;1.80;1.70;;;;;;;20.98;31.62;100204.62;6603180;27;34547;-82
2023/05/11 15:07:38;;;;;;;1.80;1.67;;;;;;;21.06;31.28;100209.69;6604152;27;33914;-82
2023/05/11 15:10:41;;;;;;;2.45;1.60;;;;;;;20.69;31.45;100212.12;6604183;27;34042;-82
2023/05/11 15:13:46;;;;;;;1.73;1.50;;;;;;;20.63;32.17;100204.91;6567952;27;34248;-82
2023/05/11 15:16:49;;;;;;;2.72;1.62;;;;;;;20.72;32.25;100208.06;6605372;26;33803;-82
2023/05/11 15:19:52;;;;;;;1.70;1.60;;;;;;;20.57;32.10;100211.38;6605298;27;33766;-82
2023/05/11 15:22:55;;;;;;;2.30;1.67;;;;;;;20.61;31.92;100205.12;6585953;27;33739;-82
2023/05/11 15:25:58;;;;;;;1.55;1.45;;;;;;;20.50;31.98;100211.47;6603696;27;34963;-82
2023/05/11 15:29:01;;;;;;;5.05;1.50;;;;;;;20.43;32.43;100210.81;6586036;27;33745;-84
2023/05/11 15:32:04;;;;;;;1.60;1.50;;;;;;;20.37;32.33;100214.53;6605532;27;33493;-83
2023/05/11 15:35:08;;;;;;;4.12;2.05;;;;;;;20.19;32.65;100218.31;6604069;27;33639;-83
2023/05/11 15:38:11;;;;;;;3.12;1.65;;;;;;;20.16;32.95;100211.44;6604157;27;33365;-83
2023/05/11 15:41:13;;;;;;;1.77;1.67;;;;;;;19.97;33.49;100220.06;6603419;27;34826;-83
2023/05/11 15:44:16;;;;;;;2.50;1.85;;;;;;;19.85;34.13;100218.22;6603679;27;34668;-83
2023/05/11 15:47:19;;;;;;;3.92;1.70;;;;;;;19.81;33.99;100218.97;6605089;27;33809;-83
2023/05/11 15:50:22;;;;;;;2.92;1.80;;;;;;;19.67;34.40;100219.22;6603463;27;35063;-83
2023/05/11 15:53:25;;;;;;;2.05;1.83;;;;;;;19.64;34.41;100218.84;6603547;27;33989;-83
